createdAt,value
2018-05-10T00:02:00.782Z,68.30
2018-05-10T00:04:28.865Z,68.30
2018-05-10T00:06:56.937Z,68.40
2018-05-10T00:09:25.029Z,68.40
2018-05-10T00:11:53.090Z,69.10
2018-05-10T00:14:21.121Z,69.60
2018-05-10T00:16:49.188Z,69.40
2018-05-10T00:19:17.230Z,69.80
2018-05-10T00:21:45.294Z,70.00
2018-05-10T00:24:13.358Z,70.30
2018-05-10T00:26:41.407Z,69.90
2018-05-10T00:29:09.489Z,70.00
2018-05-10T00:31:37.538Z,70.10
2018-05-10T00:34:05.638Z,70.00
2018-05-10T00:36:33.720Z,70.30
2018-05-10T00:39:01.786Z,70.80
2018-05-10T00:41:29.867Z,70.00
2018-05-10T00:43:57.952Z,70.50
2018-05-10T00:46:26.029Z,70.60
2018-05-10T00:48:54.094Z,70.40
2018-05-10T00:51:22.156Z,71.00
2018-05-10T00:53:50.229Z,70.90
2018-05-10T00:56:18.299Z,70.60
2018-05-10T00:58:46.362Z,70.50
2018-05-10T01:01:14.431Z,71.20
2018-05-10T01:03:42.569Z,71.40
2018-05-10T01:06:10.610Z,71.60
2018-05-10T01:08:38.650Z,71.80
2018-05-10T01:11:06.749Z,71.00
2018-05-10T01:13:34.800Z,71.00
2018-05-10T01:16:02.873Z,71.20
2018-05-10T01:18:30.963Z,71.50
2018-05-10T01:20:59.036Z,71.40
2018-05-10T01:23:27.082Z,71.70
2018-05-10T01:25:55.173Z,71.70
2018-05-10T01:28:23.238Z,72.30
2018-05-10T01:30:51.311Z,72.40
2018-05-10T01:33:19.394Z,72.00
2018-05-10T01:35:59.291Z,72.20
2018-05-10T01:38:27.360Z,72.40
2018-05-10T01:40:55.483Z,73.00
2018-05-10T01:43:23.552Z,73.20
2018-05-10T01:45:51.625Z,73.10
2018-05-10T01:48:19.676Z,73.30
2018-05-10T01:50:47.723Z,73.80
2018-05-10T01:53:15.825Z,73.30
2018-05-10T01:55:43.897Z,73.80
2018-05-10T01:58:11.935Z,73.60
2018-05-10T02:00:39.994Z,73.80
2018-05-10T02:03:08.084Z,73.70
2018-05-10T02:05:36.124Z,74.20
2018-05-10T02:08:04.971Z,74.50
2018-05-10T02:10:33.031Z,74.10
2018-05-10T02:13:01.085Z,74.70
2018-05-10T02:15:29.175Z,74.80
2018-05-10T02:17:57.226Z,74.80
2018-05-10T02:20:25.325Z,74.80
2018-05-10T02:22:53.373Z,74.90
2018-05-10T02:25:21.438Z,75.00
2018-05-10T02:27:49.531Z,75.10
2018-05-10T02:30:17.668Z,75.50
2018-05-10T02:32:45.693Z,75.50
2018-05-10T02:35:13.762Z,75.70
2018-05-10T02:37:41.827Z,76.40
2018-05-10T02:40:09.886Z,76.90
2018-05-10T02:42:37.956Z,77.10
2018-05-10T02:45:06.027Z,77.10
2018-05-10T02:47:34.094Z,76.90
2018-05-10T02:50:02.170Z,77.20
2018-05-10T02:52:30.291Z,77.50
2018-05-10T02:54:58.310Z,77.50
2018-05-10T02:57:26.362Z,78.30
2018-05-10T02:59:55.182Z,78.90
2018-05-10T03:02:23.243Z,77.30
2018-05-10T03:04:51.306Z,80.00
2018-05-10T03:07:19.358Z,80.10
2018-05-10T03:09:47.449Z,81.10
2018-05-10T03:12:15.537Z,81.50
2018-05-10T03:14:43.583Z,81.70
2018-05-10T03:17:11.641Z,81.70
2018-05-10T03:19:39.728Z,81.50
2018-05-10T03:22:07.801Z,81.50
2018-05-10T03:24:35.870Z,81.30
2018-05-10T03:27:03.926Z,81.10
2018-05-10T03:29:31.986Z,81.00
2018-05-10T03:32:00.815Z,81.40
2018-05-10T03:34:28.849Z,80.50
2018-05-10T03:36:57.755Z,80.90
2018-05-10T03:39:25.796Z,80.90
2018-05-10T03:41:53.869Z,80.60
2018-05-10T03:44:22.688Z,81.10
2018-05-10T03:46:50.780Z,80.20
2018-05-10T03:49:18.837Z,80.30
2018-05-10T03:51:46.895Z,80.00
2018-05-10T03:54:14.965Z,80.10
2018-05-10T03:56:43.050Z,80.00
2018-05-10T03:59:11.638Z,80.00
2018-05-10T04:01:40.417Z,80.50
2018-05-10T04:07:18.006Z,80.30
2018-05-10T04:09:58.837Z,81.00
2018-05-10T04:12:26.902Z,80.70
2018-05-10T04:14:54.935Z,80.70
2018-05-10T04:17:23.021Z,81.00
2018-05-10T04:19:51.071Z,80.80
2018-05-10T04:22:19.966Z,81.00
2018-05-10T04:24:48.035Z,80.30
2018-05-10T04:27:16.879Z,80.40
2018-05-10T04:29:45.715Z,80.30
2018-05-10T04:32:13.762Z,79.70
2018-05-10T04:34:41.831Z,80.10
2018-05-10T04:37:09.885Z,79.20
2018-05-10T04:39:37.957Z,79.60
2018-05-10T04:42:06.022Z,79.50
2018-05-10T04:44:34.108Z,78.70
2018-05-10T04:47:02.171Z,79.10
2018-05-10T04:49:30.238Z,78.30
2018-05-10T04:51:58.310Z,78.20
2018-05-10T04:54:27.150Z,78.60
2018-05-10T04:59:28.707Z,78.80
2018-05-10T05:01:56.762Z,79.00
2018-05-10T05:04:24.811Z,78.90
2018-05-10T05:06:52.925Z,79.80
2018-05-10T05:09:20.960Z,79.50
2018-05-10T05:11:49.018Z,80.00
2018-05-10T05:14:17.172Z,79.10
2018-05-10T05:16:45.210Z,78.90
2018-05-10T05:19:14.078Z,79.30
2018-05-10T05:21:42.123Z,78.30
2018-05-10T05:24:10.180Z,78.50
2018-05-10T05:26:38.244Z,77.50
2018-05-10T05:29:06.332Z,76.10
2018-05-10T05:31:34.381Z,75.50
2018-05-10T05:34:02.474Z,75.20
2018-05-10T05:36:30.555Z,75.30
2018-05-10T05:38:58.641Z,75.10
2018-05-10T05:41:26.722Z,74.10
2018-05-10T05:43:54.785Z,73.30
2018-05-10T05:46:22.854Z,72.90
2018-05-10T05:48:50.928Z,70.80
2018-05-10T05:51:19.025Z,69.20
2018-05-10T05:53:47.075Z,69.70
2018-05-10T05:56:15.118Z,68.00
2018-05-10T05:58:43.196Z,62.80
2018-05-10T06:01:11.257Z,56.50
2018-05-10T06:03:39.346Z,50.40
2018-05-10T06:06:07.395Z,45.70
2018-05-10T06:08:35.537Z,42.00
2018-05-10T06:11:03.545Z,40.20
2018-05-10T06:13:31.622Z,38.80
2018-05-10T06:16:00.541Z,34.20
2018-05-10T06:18:28.489Z,34.70
2018-05-10T06:20:56.569Z,33.80
2018-05-10T06:23:24.654Z,32.00
2018-05-10T06:25:52.707Z,31.70
2018-05-10T06:28:20.817Z,30.80
2018-05-10T06:30:48.854Z,30.30
2018-05-10T06:33:17.017Z,30.90
2018-05-10T06:35:45.088Z,29.70
2018-05-10T06:38:13.178Z,30.10
2018-05-10T06:40:41.233Z,27.70
2018-05-10T06:43:09.293Z,28.00
2018-05-10T06:45:37.375Z,27.10
2018-05-10T06:48:06.177Z,26.70
2018-05-10T06:50:34.237Z,26.60
2018-05-10T06:53:02.692Z,25.40
2018-05-10T06:55:30.763Z,25.80
2018-05-10T06:57:58.806Z,26.30
2018-05-10T07:00:27.641Z,26.30
2018-05-10T07:02:55.672Z,26.50
2018-05-10T07:05:24.505Z,25.90
2018-05-10T07:07:52.632Z,25.80
2018-05-10T07:10:20.740Z,25.50
2018-05-10T07:12:48.856Z,24.20
2018-05-10T07:15:17.666Z,23.50
2018-05-10T07:17:45.731Z,22.60
2018-05-10T07:20:14.609Z,21.90
2018-05-10T07:22:42.808Z,21.00
2018-05-10T07:25:10.895Z,21.00
2018-05-10T07:27:39.805Z,21.40
2018-05-10T07:30:07.859Z,21.40
2018-05-10T07:32:35.930Z,21.00
2018-05-10T07:35:04.822Z,21.30
2018-05-10T07:37:32.868Z,20.90
2018-05-10T07:40:02.605Z,21.20
2018-05-10T07:42:30.628Z,20.60
2018-05-10T07:44:58.658Z,20.40
2018-05-10T07:47:26.843Z,19.60
2018-05-10T07:49:54.805Z,19.40
2018-05-10T07:52:22.849Z,19.90
2018-05-10T07:54:50.943Z,19.90
2018-05-10T07:57:19.007Z,19.90
2018-05-10T07:59:47.064Z,18.60
2018-05-10T08:02:15.160Z,18.90
2018-05-10T08:04:43.608Z,18.60
2018-05-10T08:07:11.690Z,19.10
2018-05-10T08:09:40.163Z,18.70
2018-05-10T08:12:08.201Z,18.60
2018-05-10T08:14:36.267Z,18.60
2018-05-10T08:17:04.346Z,18.20
2018-05-10T08:19:32.404Z,18.60
2018-05-10T08:22:00.471Z,16.70
2018-05-10T08:24:28.556Z,17.10
2018-05-10T08:26:56.609Z,16.90
2018-05-10T08:29:30.468Z,16.60
2018-05-10T08:31:58.614Z,16.00
2018-05-10T08:34:27.671Z,15.80
2018-05-10T08:36:55.773Z,15.10
2018-05-10T08:39:24.617Z,15.40
2018-05-10T08:41:52.728Z,14.90
2018-05-10T08:44:20.778Z,15.00
2018-05-10T08:46:48.839Z,14.50
2018-05-10T08:49:16.934Z,14.70
2018-05-10T08:51:45.057Z,14.80
2018-05-10T08:54:13.070Z,15.70
2018-05-10T08:56:41.126Z,15.50
2018-05-10T08:59:09.205Z,14.80
2018-05-10T09:01:37.269Z,15.00
2018-05-10T09:04:05.361Z,14.90
2018-05-10T09:06:33.422Z,14.60
2018-05-10T09:09:01.483Z,15.10
2018-05-10T09:11:29.573Z,15.10
2018-05-10T09:13:57.643Z,15.20
2018-05-10T09:16:25.718Z,15.10
2018-05-10T09:18:53.774Z,15.10
2018-05-10T09:21:21.846Z,15.00
2018-05-10T09:23:49.952Z,15.40
2018-05-10T09:26:18.015Z,15.40
2018-05-10T09:28:46.083Z,15.40
2018-05-10T09:31:14.134Z,15.40
2018-05-10T09:33:42.976Z,16.30
2018-05-10T09:36:11.291Z,16.10
2018-05-10T09:38:39.356Z,16.10
2018-05-10T09:41:07.418Z,16.10
2018-05-10T09:43:36.645Z,17.10
2018-05-10T09:46:04.708Z,16.10
2018-05-10T09:48:32.799Z,16.50
2018-05-10T09:51:00.857Z,16.50
2018-05-10T09:53:30.402Z,16.40
2018-05-10T09:55:58.480Z,16.10
2018-05-10T09:58:26.534Z,16.30
2018-05-10T10:00:54.605Z,16.20
2018-05-10T10:03:22.658Z,16.50
2018-05-10T10:05:50.759Z,16.80
2018-05-10T10:08:18.789Z,17.10
2018-05-10T10:10:46.847Z,17.00
2018-05-10T10:13:14.910Z,17.40
2018-05-10T10:15:42.993Z,17.60
2018-05-10T10:18:11.050Z,18.00
2018-05-10T10:20:39.123Z,18.80
2018-05-10T10:23:07.183Z,19.30
2018-05-10T10:25:35.265Z,20.60
2018-05-10T10:28:03.353Z,22.20
2018-05-10T10:30:31.433Z,24.80
2018-05-10T10:32:59.485Z,24.70
2018-05-10T10:35:27.542Z,25.00
2018-05-10T10:37:55.662Z,22.90
2018-05-10T10:40:23.707Z,23.80
2018-05-10T10:42:51.769Z,22.90
2018-05-10T10:45:19.845Z,22.30
2018-05-10T10:47:47.896Z,22.40
2018-05-10T10:50:16.737Z,22.20
2018-05-10T10:52:44.807Z,21.80
2018-05-10T10:55:13.445Z,22.70
2018-05-10T10:57:41.452Z,23.20
2018-05-10T11:00:09.528Z,23.30
2018-05-10T11:02:37.574Z,23.50
2018-05-10T11:05:05.623Z,23.80
2018-05-10T11:07:34.494Z,23.40
2018-05-10T11:10:03.339Z,24.00
2018-05-10T11:12:31.402Z,23.90
2018-05-10T11:14:59.562Z,24.90
2018-05-10T11:17:27.565Z,25.10
2018-05-10T11:19:55.597Z,25.50
2018-05-10T11:22:23.671Z,26.00
2018-05-10T11:24:51.731Z,26.00
2018-05-10T11:27:20.722Z,26.60
2018-05-10T11:29:48.690Z,25.40
2018-05-10T11:32:16.797Z,25.90
2018-05-10T11:34:44.835Z,26.30
2018-05-10T11:37:13.729Z,26.10
2018-05-10T11:39:42.584Z,26.40
2018-05-10T11:42:11.409Z,27.00
2018-05-10T11:44:39.501Z,27.00
2018-05-10T11:47:07.589Z,26.90
2018-05-10T11:49:35.638Z,27.70
2018-05-10T11:52:03.738Z,27.20
2018-05-10T11:54:31.787Z,26.80
2018-05-10T11:56:59.829Z,26.80
2018-05-10T11:59:28.653Z,27.90
2018-05-10T12:01:56.760Z,27.30
2018-05-10T12:04:25.354Z,28.10
2018-05-10T12:06:53.482Z,28.30
2018-05-10T12:09:21.585Z,29.20
2018-05-10T12:11:50.065Z,28.50
2018-05-10T12:14:18.133Z,29.10
2018-05-10T12:16:46.222Z,29.50
2018-05-10T12:19:14.385Z,29.60
2018-05-10T12:21:42.317Z,29.90
2018-05-10T12:24:10.387Z,29.80
2018-05-10T12:26:38.435Z,30.30
2018-05-10T12:29:07.617Z,30.90
2018-05-10T12:31:36.423Z,32.30
2018-05-10T12:34:04.490Z,32.30
2018-05-10T12:36:33.414Z,33.20
2018-05-10T12:39:01.456Z,33.10
2018-05-10T12:41:29.558Z,34.20
2018-05-10T12:43:58.318Z,36.50
2018-05-10T12:46:26.389Z,36.40
2018-05-10T12:48:55.230Z,37.60
2018-05-10T12:51:23.457Z,37.60
2018-05-10T12:53:51.589Z,38.60
2018-05-10T12:56:19.721Z,39.70
2018-05-10T12:58:47.709Z,40.20
2018-05-10T13:01:15.776Z,40.50
2018-05-10T13:03:43.845Z,42.10
2018-05-10T13:06:11.915Z,42.70
2018-05-10T13:08:40.772Z,42.90
2018-05-10T13:11:08.813Z,43.40
2018-05-10T13:13:36.881Z,43.40
2018-05-10T13:16:04.932Z,44.00
2018-05-10T13:18:33.062Z,45.20
2018-05-10T13:21:01.081Z,45.40
2018-05-10T13:23:29.208Z,46.50
2018-05-10T13:25:57.245Z,46.90
2018-05-10T13:28:25.313Z,47.30
2018-05-10T13:30:53.393Z,48.80
2018-05-10T13:33:22.211Z,50.00
2018-05-10T13:35:50.249Z,49.10
2018-05-10T13:38:18.382Z,48.70
2018-05-10T13:40:47.162Z,48.90
2018-05-10T13:43:15.245Z,48.00
2018-05-10T13:45:43.306Z,48.00
2018-05-10T13:48:11.378Z,48.40
2018-05-10T13:50:39.534Z,47.40
2018-05-10T13:53:07.571Z,47.30
2018-05-10T13:55:35.646Z,47.10
2018-05-10T13:58:04.977Z,47.20
2018-05-10T14:00:33.063Z,46.30
2018-05-10T14:03:01.166Z,46.10
2018-05-10T14:05:29.206Z,45.80
2018-05-10T14:07:57.275Z,45.80
2018-05-10T14:10:25.354Z,46.00
2018-05-10T14:12:53.426Z,45.50
2018-05-10T14:15:21.499Z,45.00
2018-05-10T14:17:49.648Z,44.70
2018-05-10T14:20:18.453Z,44.40
2018-05-10T14:22:46.504Z,44.30
2018-05-10T14:25:14.645Z,43.20
2018-05-10T14:27:42.663Z,42.10
2018-05-10T14:30:10.772Z,42.00
2018-05-10T14:32:38.804Z,41.70
2018-05-10T14:35:06.855Z,41.30
2018-05-10T14:37:35.696Z,41.10
2018-05-10T14:40:03.824Z,40.60
2018-05-10T14:42:31.840Z,40.30
2018-05-10T14:44:59.902Z,39.90
2018-05-10T14:47:27.983Z,39.30
2018-05-10T14:49:56.035Z,39.20
2018-05-10T14:52:24.102Z,38.90
2018-05-10T14:54:52.714Z,38.80
2018-05-10T14:57:20.775Z,39.90
2018-05-10T14:59:48.878Z,40.40
2018-05-10T15:02:16.918Z,40.00
2018-05-10T15:04:44.985Z,40.00
2018-05-10T15:07:13.055Z,40.30
2018-05-10T15:09:41.121Z,40.30
2018-05-10T15:12:09.173Z,40.40
2018-05-10T15:14:37.219Z,41.60
2018-05-10T15:17:05.278Z,42.40
2018-05-10T15:19:33.336Z,42.60
2018-05-10T15:22:01.382Z,42.50
2018-05-10T15:24:29.445Z,43.70
2018-05-10T15:26:57.517Z,44.30
2018-05-10T15:29:25.566Z,44.80
2018-05-10T15:31:53.615Z,44.60
2018-05-10T15:34:21.675Z,44.60
2018-05-10T15:36:49.743Z,45.40
2018-05-10T15:39:17.774Z,46.10
2018-05-10T15:41:45.846Z,46.20
2018-05-10T15:44:15.047Z,47.10
2018-05-10T15:46:43.187Z,47.30
2018-05-10T15:49:11.193Z,47.90
2018-05-10T15:51:40.430Z,48.60
2018-05-10T15:54:08.836Z,49.00
2018-05-10T15:56:37.662Z,49.20
2018-05-10T15:59:05.714Z,49.80
2018-05-10T16:01:33.785Z,49.90
2018-05-10T16:04:01.899Z,49.40
2018-05-10T16:06:30.699Z,48.70
2018-05-10T16:08:59.126Z,48.30
2018-05-10T16:11:27.198Z,48.30
2018-05-10T16:13:55.324Z,48.50
2018-05-10T16:16:24.825Z,48.60
2018-05-10T16:18:54.385Z,49.20
2018-05-10T16:21:23.206Z,48.70
2018-05-10T16:23:51.250Z,48.60
2018-05-10T16:26:19.398Z,48.60
2018-05-10T16:28:47.353Z,48.60
2018-05-10T16:31:16.206Z,49.50
2018-05-10T16:33:45.033Z,49.60
2018-05-10T16:36:13.830Z,50.40
2018-05-10T16:38:42.709Z,50.50
2018-05-10T16:41:12.143Z,50.70
2018-05-10T16:43:40.226Z,50.50
2018-05-10T16:46:08.259Z,50.70
2018-05-10T16:48:37.160Z,51.80
2018-05-10T16:51:05.211Z,49.90
2018-05-10T16:53:33.270Z,51.90
2018-05-10T16:56:01.338Z,52.30
2018-05-10T16:58:29.506Z,52.60
2018-05-10T17:00:57.585Z,53.00
2018-05-10T17:03:25.653Z,53.10
2018-05-10T17:05:53.759Z,53.20
2018-05-10T17:08:22.595Z,53.40
2018-05-10T17:10:51.638Z,53.40
2018-05-10T17:13:20.449Z,53.70
2018-05-10T17:15:48.502Z,53.70
2018-05-10T17:18:16.663Z,51.50
2018-05-10T17:20:45.551Z,51.90
2018-05-10T17:23:13.808Z,51.50
2018-05-10T17:25:42.767Z,52.10
2018-05-10T17:28:11.791Z,51.40
2018-05-10T17:30:39.932Z,52.10
2018-05-10T17:33:08.237Z,51.90
2018-05-10T17:35:36.381Z,51.70
2018-05-10T17:38:04.501Z,51.20
2018-05-10T17:40:33.427Z,51.70
2018-05-10T17:43:01.469Z,51.20
2018-05-10T17:45:29.550Z,47.80
2018-05-10T17:47:57.711Z,50.60
2018-05-10T17:50:25.833Z,50.20
2018-05-10T17:52:53.894Z,50.40
2018-05-10T17:55:22.078Z,50.80
2018-05-10T17:57:50.087Z,51.00
2018-05-10T18:00:18.146Z,51.60
2018-05-10T18:02:46.198Z,51.70
2018-05-10T18:05:14.345Z,52.10
2018-05-10T18:07:42.371Z,52.60
2018-05-10T18:10:11.161Z,52.70
2018-05-10T18:12:39.665Z,53.00
2018-05-10T18:15:07.721Z,53.10
2018-05-10T18:17:36.342Z,53.80
2018-05-10T18:20:05.170Z,54.90
2018-05-10T18:22:33.233Z,54.80
2018-05-10T18:25:01.307Z,55.20
2018-05-10T18:27:29.408Z,55.40
2018-05-10T18:29:57.448Z,55.70
2018-05-10T18:32:25.538Z,55.70
2018-05-10T18:34:53.573Z,55.70
2018-05-10T18:37:21.637Z,56.30
2018-05-10T18:39:49.724Z,56.50
2018-05-10T18:42:17.783Z,56.30
2018-05-10T18:44:45.862Z,55.90
2018-05-10T18:47:13.945Z,56.20
2018-05-10T18:49:41.997Z,55.80
2018-05-10T18:52:10.101Z,56.40
2018-05-10T18:54:38.243Z,60.40
2018-05-10T18:57:07.021Z,56.60
2018-05-10T18:59:35.178Z,55.30
2018-05-10T19:02:03.277Z,55.10
2018-05-10T19:04:31.321Z,55.10
2018-05-10T19:07:00.173Z,56.20
2018-05-10T19:09:28.231Z,55.90
2018-05-10T19:11:57.089Z,57.00
2018-05-10T19:14:25.166Z,55.80
2018-05-10T19:16:53.268Z,55.90
2018-05-10T19:19:21.290Z,56.20
2018-05-10T19:21:50.151Z,57.10
2018-05-10T19:24:18.190Z,56.20
2018-05-10T19:26:46.263Z,56.50
2018-05-10T19:29:14.331Z,56.20
2018-05-10T19:31:42.423Z,55.50
2018-05-10T19:34:10.558Z,55.50
2018-05-10T19:36:38.592Z,55.10
2018-05-10T19:39:06.662Z,55.00
2018-05-10T19:41:34.702Z,55.30
2018-05-10T19:44:02.744Z,55.60
2018-05-10T19:46:30.822Z,56.00
2018-05-10T19:48:58.914Z,56.00
2018-05-10T19:51:26.993Z,55.70
2018-05-10T19:53:55.042Z,56.00
2018-05-10T19:56:23.085Z,56.30
2018-05-10T19:58:51.988Z,56.70
2018-05-10T20:01:20.804Z,56.10
2018-05-10T20:03:49.735Z,56.10
2018-05-10T20:06:17.795Z,56.10
2018-05-10T20:08:45.833Z,56.00
2018-05-10T20:11:13.881Z,56.00
2018-05-10T20:13:42.026Z,56.20
2018-05-10T20:16:10.757Z,56.70
2018-05-10T20:18:38.781Z,56.30
2018-05-10T20:21:06.965Z,56.00
2018-05-10T20:23:34.977Z,56.00
2018-05-10T20:26:03.142Z,52.70
2018-05-10T20:28:31.204Z,56.50
2018-05-10T20:30:59.165Z,56.50
2018-05-10T20:33:27.213Z,56.80
2018-05-10T20:35:55.329Z,57.10
2018-05-10T20:38:23.357Z,56.70
2018-05-10T20:40:52.219Z,57.20
2018-05-10T20:43:20.301Z,56.70
2018-05-10T20:45:48.309Z,56.70
2018-05-10T20:48:17.142Z,57.10
2018-05-10T20:50:45.198Z,57.30
2018-05-10T20:53:13.282Z,57.30
2018-05-10T20:55:41.335Z,57.70
2018-05-10T20:58:09.386Z,58.00
2018-05-10T21:00:37.474Z,57.90
2018-05-10T21:03:05.551Z,58.00
2018-05-10T21:05:33.635Z,57.80
2018-05-10T21:08:01.707Z,57.90
2018-05-10T21:10:29.829Z,58.10
2018-05-10T21:12:58.617Z,58.40
2018-05-10T21:15:27.416Z,58.40
2018-05-10T21:17:56.266Z,58.50
2018-05-10T21:20:24.318Z,58.50
2018-05-10T21:22:52.411Z,58.90
2018-05-10T21:25:20.462Z,59.20
2018-05-10T21:27:48.521Z,59.40
2018-05-10T21:30:17.359Z,59.20
2018-05-10T21:32:45.438Z,59.30
2018-05-10T21:35:13.603Z,59.50
2018-05-10T21:37:41.682Z,61.20
2018-05-10T21:40:10.541Z,60.30
2018-05-10T21:42:38.589Z,60.30
2018-05-10T21:45:06.697Z,60.40
2018-05-10T21:47:34.750Z,60.70
2018-05-10T21:50:05.592Z,60.30
2018-05-10T21:52:33.683Z,60.60
2018-05-10T21:55:01.749Z,60.50
2018-05-10T21:57:29.790Z,60.70
2018-05-10T21:59:57.841Z,60.90
2018-05-10T22:02:25.933Z,61.40
2018-05-10T22:04:54.037Z,60.90
2018-05-10T22:07:22.113Z,60.90
2018-05-10T22:09:50.149Z,61.20
2018-05-10T22:12:18.224Z,61.30
2018-05-10T22:14:46.296Z,61.60
2018-05-10T22:17:14.357Z,61.70
2018-05-10T22:19:42.426Z,61.80
2018-05-10T22:22:10.497Z,62.00
2018-05-10T22:24:38.585Z,62.10
2018-05-10T22:27:06.640Z,62.20
2018-05-10T22:29:34.739Z,62.80
2018-05-10T22:32:02.813Z,62.80
2018-05-10T22:34:30.856Z,62.80
2018-05-10T22:36:58.991Z,63.10
2018-05-10T22:39:27.046Z,63.20
2018-05-10T22:41:55.129Z,63.40
2018-05-10T22:44:24.042Z,63.80
2018-05-10T22:46:52.070Z,63.80
2018-05-10T22:49:20.142Z,64.00
2018-05-10T22:51:48.174Z,64.40
2018-05-10T22:54:16.250Z,64.90
2018-05-10T22:56:44.320Z,65.90
2018-05-10T22:59:12.424Z,66.60
2018-05-10T23:01:40.491Z,67.00
2018-05-10T23:04:08.563Z,67.40
2018-05-10T23:06:36.598Z,67.50
2018-05-10T23:09:04.673Z,67.60
2018-05-10T23:11:32.737Z,67.70
2018-05-10T23:14:00.802Z,67.90
2018-05-10T23:16:29.220Z,68.20
2018-05-10T23:18:57.294Z,68.00
2018-05-10T23:21:25.351Z,68.20
2018-05-10T23:23:53.418Z,68.20
2018-05-10T23:26:21.485Z,68.10
2018-05-10T23:28:49.528Z,68.20
2018-05-10T23:31:17.627Z,67.90
2018-05-10T23:33:45.684Z,68.00
2018-05-10T23:36:14.282Z,68.10
2018-05-10T23:38:42.427Z,67.90
2018-05-10T23:41:10.498Z,68.00
2018-05-10T23:43:39.313Z,68.50
2018-05-10T23:46:07.382Z,68.50
2018-05-10T23:48:35.454Z,68.60
2018-05-10T23:51:03.517Z,69.00
2018-05-10T23:53:32.390Z,68.90
2018-05-10T23:56:00.453Z,68.90
2018-05-10T23:58:29.277Z,69.10
